Time;durP1;ratioP1;P1;durP2;ratioP2;P2;SDS_P1;SDS_P2;PMS_P1;PMS_P2;Temp;Humidity;BMP_temperature;BMP_pressure;BME280_temperature;BME280_humidity;BME280_pressure;Samples;Min_cycle;Max_cycle;Signal;HPM_P1;HPM_P2
2022/03/27 00:01:20;;;;;;;5.90;5.30;;;20.20;46.90;21.20;102231.00;;;;4987036;28;20191;-60
2022/03/27 00:03:46;;;;;;;5.40;4.90;;;20.20;46.30;21.20;102241.00;;;;4985784;28;20168;-60
2022/03/27 00:06:11;;;;;;;5.50;5.00;;;20.20;46.30;21.10;102230.00;;;;5001719;28;20183;-60
2022/03/27 00:08:37;;;;;;;5.47;4.97;;;20.20;46.30;21.10;102227.00;;;;5004535;28;20188;-61
2022/03/27 00:13:47;;;;;;;5.07;4.67;;;20.10;46.20;21.10;102233.00;;;;4973582;28;20222;-64
2022/03/27 00:16:14;;;;;;;5.30;4.80;;;20.10;46.30;21.00;102238.00;;;;4987684;28;20169;-61
2022/03/27 00:18:41;;;;;;;5.43;4.67;;;20.10;46.30;21.00;102243.00;;;;5005166;28;20205;-61
2022/03/27 00:21:07;;;;;;;5.30;4.90;;;20.10;46.30;21.00;102239.00;;;;4985738;28;20200;-60
2022/03/27 00:23:33;;;;;;;5.20;4.80;;;20.10;46.40;21.00;102240.00;;;;4986001;28;20164;-60
2022/03/27 00:25:58;;;;;;;5.17;4.77;;;20.10;46.40;21.00;102225.00;;;;4985936;28;20528;-60
2022/03/27 00:28:25;;;;;;;5.10;4.70;;;20.00;46.40;20.90;102239.00;;;;4988086;28;20197;-59
2022/03/27 00:30:51;;;;;;;5.00;4.60;;;20.00;46.30;20.90;102207.00;;;;4987690;28;20172;-61
2022/03/27 00:33:18;;;;;;;5.00;4.60;;;20.00;46.30;20.90;102234.00;;;;4986879;28;20170;-60
2022/03/27 00:35:44;;;;;;;4.70;4.30;;;20.00;46.40;20.90;102236.00;;;;4985729;28;20199;-60
2022/03/27 00:38:10;;;;;;;5.07;4.67;;;19.90;46.40;20.90;102244.00;;;;5001687;28;20807;-60
2022/03/27 00:40:36;;;;;;;5.03;4.63;;;20.00;46.40;20.90;102212.00;;;;4985773;28;20255;-61
2022/03/27 00:43:02;;;;;;;5.20;4.80;;;19.90;46.40;20.90;102215.00;;;;4985714;28;20260;-61
2022/03/27 00:45:28;;;;;;;5.03;4.60;;;19.90;46.50;20.80;102236.00;;;;4985371;28;20225;-61
2022/03/27 00:47:54;;;;;;;4.63;4.30;;;19.90;46.50;20.80;102225.00;;;;5001697;28;20673;-61
2022/03/27 00:50:20;;;;;;;5.43;4.80;;;19.80;46.50;20.80;102238.00;;;;4985864;28;20235;-61
2022/03/27 00:52:46;;;;;;;5.20;4.80;;;19.90;46.60;20.80;102240.00;;;;4986841;28;20196;-61
2022/03/27 00:55:12;;;;;;;4.90;4.50;;;19.80;46.50;20.80;102241.00;;;;4985583;28;20184;-61
2022/03/27 00:57:38;;;;;;;5.10;4.60;;;19.80;46.50;20.80;102237.00;;;;5001534;28;20724;-61
2022/03/27 01:00:09;;;;;;;4.83;4.43;;;19.80;46.50;20.80;102237.00;;;;4987320;28;20177;-60
2022/03/27 01:02:35;;;;;;;5.03;4.63;;;19.80;46.60;20.70;102223.00;;;;4967275;28;20172;-61
2022/03/27 01:05:01;;;;;;;5.90;4.50;;;19.80;46.80;20.70;102227.00;;;;4982371;28;20172;-61
2022/03/27 01:07:27;;;;;;;4.40;4.10;;;19.70;46.50;20.70;102205.00;;;;4965840;28;20178;-60
2022/03/27 01:09:55;;;;;;;4.80;4.40;;;19.80;46.60;20.70;102229.00;;;;4982182;28;20753;-61
2022/03/27 01:12:27;;;;;;;5.27;4.87;;;19.80;46.60;20.70;102229.00;;;;4965936;28;20181;-61
2022/03/27 01:14:53;;;;;;;4.90;4.50;;;19.70;46.60;20.70;102208.00;;;;4982134;28;20166;-61
2022/03/27 01:17:22;;;;;;;5.13;4.63;;;19.70;46.60;20.60;102216.00;;;;4969164;28;20201;-61
2022/03/27 01:19:54;;;;;;;5.20;4.70;;;19.70;46.60;20.60;102210.00;;;;4969787;28;20196;-60
2022/03/27 01:22:20;;;;;;;4.60;4.20;;;19.70;46.60;20.60;102209.00;;;;4970686;28;20146;-61
2022/03/27 01:24:47;;;;;;;4.60;4.20;;;19.70;46.60;20.60;102208.00;;;;4953217;28;20224;-60
2022/03/27 01:27:13;;;;;;;5.07;4.67;;;19.60;46.60;20.60;102205.00;;;;4984955;28;20169;-61
2022/03/27 01:29:38;;;;;;;4.77;4.47;;;19.60;46.70;20.60;102182.00;;;;4973369;28;20160;-61
2022/03/27 01:32:06;;;;;;;4.67;4.30;;;19.60;46.60;20.60;102200.00;;;;4974417;28;20173;-60
2022/03/27 01:34:32;;;;;;;4.83;4.43;;;19.60;46.70;20.50;102194.00;;;;4973097;28;20184;-59
2022/03/27 01:37:05;;;;;;;4.77;4.40;;;19.60;46.70;20.50;102193.00;;;;4972125;28;20296;-60
2022/03/27 01:39:31;;;;;;;4.50;4.20;;;19.60;46.80;20.50;102187.00;;;;4986457;28;20736;-59
2022/03/27 01:41:57;;;;;;;4.40;4.10;;;19.60;46.80;20.50;102184.00;;;;4971222;28;20201;-59
2022/03/27 01:44:22;;;;;;;4.50;4.10;;;19.60;46.80;20.50;102188.00;;;;4971021;28;20223;-60
2022/03/27 01:46:48;;;;;;;4.33;4.03;;;19.50;46.80;20.50;102189.00;;;;4971437;28;20180;-59
2022/03/27 01:49:16;;;;;;;4.67;4.27;;;19.50;46.80;20.50;102176.00;;;;4970603;28;20196;-59
2022/03/27 01:51:42;;;;;;;4.50;4.20;;;19.50;46.80;20.40;102169.00;;;;4970227;28;20503;-59
2022/03/27 01:54:08;;;;;;;4.33;4.00;;;19.50;46.80;20.40;102180.00;;;;4969680;28;20168;-61
2022/03/27 01:56:33;;;;;;;4.37;4.07;;;19.50;46.80;20.40;102176.00;;;;4985318;28;20157;-60
2022/03/27 01:59:00;;;;;;;4.70;4.30;;;19.50;46.80;20.40;102145.00;;;;4971940;28;20209;-61
2022/03/27 02:01:25;;;;;;;4.70;4.30;;;19.50;46.90;20.40;102176.00;;;;4971623;28;20165;-60
2022/03/27 02:03:51;;;;;;;4.20;3.90;;;19.40;46.70;20.40;102174.00;;;;4985014;28;20181;-60
2022/03/27 02:06:17;;;;;;;4.23;3.93;;;19.40;46.80;20.40;102171.00;;;;4969687;28;20184;-61
2022/03/27 02:08:43;;;;;;;4.77;4.37;;;19.40;46.80;20.30;102173.00;;;;4984320;28;20261;-61
2022/03/27 02:11:09;;;;;;;4.70;4.30;;;19.40;47.10;20.40;102179.00;;;;4968650;28;20216;-62
2022/03/27 02:13:35;;;;;;;4.63;4.33;;;19.40;47.20;20.30;102176.00;;;;4969700;28;20169;-60
2022/03/27 02:16:03;;;;;;;4.87;4.47;;;19.40;47.20;20.30;102180.00;;;;4969728;28;20707;-60
2022/03/27 02:18:29;;;;;;;4.50;4.20;;;19.40;47.20;20.30;102176.00;;;;4983857;28;20209;-60
2022/03/27 02:20:55;;;;;;;4.77;4.40;;;19.40;47.20;20.30;102184.00;;;;4968145;28;20173;-61
2022/03/27 02:23:22;;;;;;;4.53;4.20;;;19.40;47.20;20.30;102190.00;;;;4983974;28;20184;-61
2022/03/27 02:25:48;;;;;;;4.30;3.93;;;19.40;47.80;20.30;102196.00;;;;4968229;28;20180;-60
2022/03/27 02:28:13;;;;;;;4.47;4.17;;;19.30;47.10;20.30;102167.00;;;;4967702;28;20200;-60
2022/03/27 02:30:39;;;;;;;4.63;4.23;;;19.30;47.10;20.20;102180.00;;;;4968046;28;20553;-61
2022/03/27 02:33:05;;;;;;;4.80;4.40;;;19.30;47.10;20.20;102196.00;;;;4967589;28;20248;-61
2022/03/27 02:35:31;;;;;;;4.40;4.10;;;19.30;47.10;20.20;102185.00;;;;4968680;28;20801;-61
2022/03/27 02:37:56;;;;;;;4.67;4.27;;;19.30;47.10;20.20;102192.00;;;;4983118;28;20205;-61
2022/03/27 02:40:22;;;;;;;4.67;4.30;;;19.30;47.10;20.20;102193.00;;;;4967139;28;20169;-59
2022/03/27 02:42:48;;;;;;;4.57;4.27;;;19.30;47.10;20.20;102191.00;;;;4968716;28;20177;-60
2022/03/27 02:45:14;;;;;;;4.40;4.10;;;19.20;47.00;20.20;102191.00;;;;4983529;28;20531;-61
2022/03/27 02:47:40;;;;;;;4.30;4.00;;;19.20;47.00;20.20;102188.00;;;;4967269;28;20196;-61
2022/03/27 02:50:06;;;;;;;4.20;3.90;;;19.20;47.10;20.20;102186.00;;;;4968680;28;20556;-61
2022/03/27 02:52:32;;;;;;;4.50;4.10;;;19.20;47.10;20.10;102191.00;;;;4986542;28;20254;-61
2022/03/27 02:54:58;;;;;;;4.33;4.03;;;19.20;47.10;20.10;102182.00;;;;4969369;28;20208;-61
2022/03/27 02:57:24;;;;;;;4.03;3.73;;;19.20;47.10;20.10;102185.00;;;;4967312;28;20573;-59
2022/03/27 02:59:53;;;;;;;4.17;3.87;;;19.20;47.10;20.10;102179.00;;;;4984349;28;20165;-59
2022/03/27 03:02:21;;;;;;;4.10;3.80;;;19.20;47.00;20.10;102181.00;;;;4968497;28;20178;-60
2022/03/27 03:04:47;;;;;;;4.37;4.07;;;19.10;47.00;20.10;102181.00;;;;4968446;28;20188;-60
2022/03/27 03:07:14;;;;;;;4.10;3.80;;;19.20;47.10;20.10;102166.00;;;;4982986;28;20810;-59
2022/03/27 03:09:41;;;;;;;4.37;4.07;;;19.20;47.10;20.10;102182.00;;;;4982812;28;20681;-59
2022/03/27 03:12:07;;;;;;;4.20;3.90;;;19.10;47.00;20.10;102173.00;;;;4966846;28;20184;-59
2022/03/27 03:14:33;;;;;;;4.33;4.03;;;19.10;47.00;20.00;102173.00;;;;4967925;28;20603;-59
2022/03/27 03:17:00;;;;;;;4.50;4.10;;;19.10;47.00;20.00;102166.00;;;;4968404;28;20244;-59
2022/03/27 03:19:26;;;;;;;4.30;4.00;;;19.00;47.00;20.00;102141.00;;;;4966488;28;20201;-60
2022/03/27 03:21:51;;;;;;;4.10;3.80;;;19.10;47.20;20.00;102181.00;;;;4982455;28;20562;-60
2022/03/27 03:24:17;;;;;;;4.00;3.70;;;19.00;47.00;20.00;102186.00;;;;4968053;28;20169;-60
2022/03/27 03:26:43;;;;;;;4.47;4.10;;;19.00;47.00;20.00;102122.00;;;;4982541;28;20180;-60
2022/03/27 03:29:09;;;;;;;4.40;4.10;;;19.00;47.00;20.00;102185.00;;;;4967713;28;20251;-60
2022/03/27 03:31:35;;;;;;;4.00;3.70;;;19.00;47.00;19.90;102179.00;;;;4967908;28;20231;-60
2022/03/27 03:34:01;;;;;;;5.47;3.83;;;19.00;47.10;19.90;102177.00;;;;4966469;28;20196;-60
2022/03/27 03:36:27;;;;;;;8.70;3.97;;;19.00;47.80;19.90;102181.00;;;;4967508;28;20184;-59
2022/03/27 03:38:53;;;;;;;5.93;4.00;;;19.00;47.20;19.90;102186.00;;;;4970558;28;20204;-60
2022/03/27 03:41:18;;;;;;;8.50;4.40;;;19.00;47.10;19.90;102188.00;;;;4966117;28;20255;-61
2022/03/27 03:43:44;;;;;;;4.20;3.80;;;19.00;47.00;19.90;102179.00;;;;4982404;28;20184;-60
2022/03/27 03:46:10;;;;;;;4.37;3.80;;;19.00;46.90;19.90;102172.00;;;;4966014;28;20734;-61
2022/03/27 03:48:35;;;;;;;4.30;3.90;;;18.90;46.90;19.90;102185.00;;;;4982256;28;20209;-60
2022/03/27 03:51:01;;;;;;;4.23;3.83;;;18.90;46.90;19.90;102177.00;;;;4967600;28;20183;-60
2022/03/27 03:53:27;;;;;;;4.40;3.80;;;18.90;46.90;19.90;102175.00;;;;4967242;28;20184;-61
2022/03/27 03:55:53;;;;;;;4.53;3.80;;;18.90;47.00;19.80;102164.00;;;;4972619;28;20180;-60
2022/03/27 03:58:18;;;;;;;4.57;3.90;;;18.80;46.90;19.80;102175.00;;;;4984510;28;20204;-60
2022/03/27 04:00:46;;;;;;;4.20;3.80;;;18.80;46.80;19.80;102176.00;;;;4986664;28;20254;-60
2022/03/27 04:03:13;;;;;;;4.10;3.80;;;18.80;46.80;19.80;102175.00;;;;4968935;28;20164;-61
2022/03/27 04:05:38;;;;;;;4.03;3.60;;;18.80;46.80;19.80;102175.00;;;;5001674;28;20179;-60
2022/03/27 04:08:04;;;;;;;4.47;4.00;;;18.80;46.70;19.80;102173.00;;;;4986403;28;20200;-60
2022/03/27 04:10:30;;;;;;;4.00;3.70;;;18.80;46.80;19.80;102177.00;;;;5002030;28;20747;-60
2022/03/27 04:12:56;;;;;;;4.00;3.60;;;18.70;46.60;19.70;102178.00;;;;4986613;28;20195;-60
2022/03/27 04:15:22;;;;;;;4.27;3.93;;;18.70;46.60;19.70;102178.00;;;;4986264;28;20608;-60
2022/03/27 04:17:48;;;;;;;4.90;4.03;;;18.80;46.70;19.70;102161.00;;;;5000877;28;20215;-60
2022/03/27 04:20:14;;;;;;;4.10;3.80;;;18.80;46.70;19.70;102167.00;;;;5000951;28;20190;-60
2022/03/27 04:22:41;;;;;;;4.63;3.97;;;18.70;46.60;19.70;102176.00;;;;4986224;28;20194;-60
2022/03/27 04:25:07;;;;;;;3.97;3.67;;;18.70;46.70;19.70;102177.00;;;;4984554;28;20175;-59
2022/03/27 04:27:34;;;;;;;3.90;3.60;;;18.70;46.70;19.70;102183.00;;;;4985830;28;20236;-59
2022/03/27 04:30:00;;;;;;;5.77;3.50;;;18.70;46.70;19.70;102177.00;;;;5000759;28;20176;-60
2022/03/27 04:32:26;;;;;;;5.53;3.67;;;18.70;46.70;19.60;102175.00;;;;4985974;28;20172;-59
2022/03/27 04:34:52;;;;;;;4.30;3.87;;;18.70;46.70;19.60;102172.00;;;;4986118;28;20709;-60
2022/03/27 04:37:17;;;;;;;9.43;4.30;;;18.60;46.70;19.60;102171.00;;;;5000767;28;20199;-59
2022/03/27 04:39:43;;;;;;;6.97;4.20;;;18.60;46.70;19.60;102176.00;;;;5000737;28;20173;-60
2022/03/27 04:42:09;;;;;;;8.77;4.33;;;18.60;46.70;19.60;102178.00;;;;4985240;28;20200;-60
2022/03/27 04:44:35;;;;;;;9.40;4.33;;;18.60;46.80;19.60;102159.00;;;;4985751;28;20192;-60
2022/03/27 04:47:01;;;;;;;9.77;4.17;;;18.60;46.80;19.60;102188.00;;;;4988729;28;20207;-61
2022/03/27 04:49:27;;;;;;;7.60;4.00;;;18.60;46.90;19.60;102179.00;;;;5002157;28;20217;-60
2022/03/27 04:51:53;;;;;;;5.07;3.80;;;18.60;47.00;19.60;102192.00;;;;4989657;28;20174;-61
2022/03/27 04:54:18;;;;;;;6.63;4.00;;;18.60;46.90;19.50;102189.00;;;;4991492;28;20184;-61
2022/03/27 04:56:44;;;;;;;6.27;4.13;;;18.60;47.10;19.30;102190.00;;;;4990870;28;20783;-61
2022/03/27 04:59:10;;;;;;;7.03;3.90;;;18.50;47.00;19.50;102202.00;;;;5004540;28;20208;-59
2022/03/27 05:01:36;;;;;;;8.07;4.07;;;18.50;47.00;19.50;102208.00;;;;4989861;28;20182;-60
2022/03/27 05:04:02;;;;;;;7.07;4.27;;;18.50;47.10;19.50;102215.00;;;;4988308;28;20161;-60
2022/03/27 05:06:29;;;;;;;5.63;4.00;;;18.50;47.10;19.50;102205.00;;;;4989664;28;20550;-60
2022/03/27 05:08:58;;;;;;;7.83;3.90;;;18.50;47.10;19.50;102213.00;;;;4989392;28;20213;-60
2022/03/27 05:11:30;;;;;;;5.60;3.90;;;18.50;47.20;19.40;102201.00;;;;4989771;28;20164;-61
2022/03/27 05:13:55;;;;;;;8.27;4.13;;;18.50;47.10;19.40;102199.00;;;;4989423;28;20184;-60
2022/03/27 05:16:21;;;;;;;5.40;4.03;;;18.40;47.10;19.40;102207.00;;;;5004138;28;20289;-58
2022/03/27 05:18:48;;;;;;;6.60;3.70;;;18.40;47.00;19.40;102212.00;;;;5006232;28;20211;-58
2022/03/27 05:21:14;;;;;;;6.37;4.00;;;18.50;47.10;19.40;102210.00;;;;4987735;28;20166;-60
2022/03/27 05:23:40;;;;;;;9.17;4.20;;;18.50;47.10;19.40;102210.00;;;;5004194;28;20172;-60
2022/03/27 05:26:06;;;;;;;4.83;3.67;;;18.40;47.00;19.40;102209.00;;;;5004081;28;20249;-59
2022/03/27 05:28:32;;;;;;;9.43;4.07;;;18.40;47.10;19.30;102214.00;;;;4988737;28;20278;-58
2022/03/27 05:30:57;;;;;;;6.77;3.70;;;18.40;47.30;19.30;102199.00;;;;4989223;28;20591;-58
2022/03/27 05:33:23;;;;;;;6.03;4.10;;;18.40;47.30;19.30;102207.00;;;;4988810;28;20188;-58
2022/03/27 05:35:49;;;;;;;4.23;3.70;;;18.40;47.30;19.30;102215.00;;;;5005606;28;20195;-58
2022/03/27 05:38:16;;;;;;;5.13;3.93;;;18.30;47.20;19.30;102217.00;;;;5004434;28;20713;-59
2022/03/27 05:40:42;;;;;;;4.77;3.87;;;18.40;47.30;19.30;102196.00;;;;5005144;28;20233;-58
2022/03/27 05:43:07;;;;;;;3.67;3.37;;;18.30;47.10;19.30;102217.00;;;;4988163;28;20769;-59
2022/03/27 05:45:35;;;;;;;4.13;3.53;;;18.30;47.10;19.30;102220.00;;;;4988715;28;20179;-58
2022/03/27 05:48:02;;;;;;;4.53;3.90;;;18.30;47.00;19.30;102225.00;;;;5003786;28;20211;-59
2022/03/27 05:50:27;;;;;;;4.77;3.63;;;18.30;47.00;19.20;102090.00;;;;5003403;28;20658;-59
2022/03/27 05:52:53;;;;;;;3.93;3.63;;;18.30;47.00;19.20;102212.00;;;;5003620;28;20487;-59
2022/03/27 05:55:20;;;;;;;5.20;3.60;;;18.30;47.00;19.20;102230.00;;;;4970690;28;20679;-59
2022/03/27 05:57:46;;;;;;;5.87;3.50;;;18.30;47.00;19.20;102221.00;;;;4987791;28;20758;-59
2022/03/27 06:00:15;;;;;;;6.23;3.53;;;18.20;46.90;19.20;102203.00;;;;4987022;28;20216;-59
2022/03/27 06:02:41;;;;;;;3.83;3.50;;;18.20;46.90;19.20;102231.00;;;;5002576;28;20180;-59
2022/03/27 06:05:08;;;;;;;3.80;3.40;;;18.20;46.90;19.20;102206.00;;;;4986990;28;20175;-59
2022/03/27 06:07:45;;;;;;;4.00;3.33;;;18.20;46.90;19.20;102230.00;;;;5003052;28;20218;-59
2022/03/27 06:10:11;;;;;;;4.43;3.30;;;18.20;47.00;19.10;102247.00;;;;4986861;28;20279;-59
2022/03/27 06:12:36;;;;;;;3.63;3.33;;;18.20;46.90;19.10;102254.00;;;;4987007;28;20768;-59
2022/03/27 06:15:03;;;;;;;4.10;3.70;;;18.10;46.90;19.10;102245.00;;;;4988221;28;20189;-58
2022/03/27 06:17:29;;;;;;;3.80;3.50;;;18.20;47.00;19.10;102232.00;;;;4987865;28;20864;-59
2022/03/27 06:19:54;;;;;;;4.53;3.77;;;18.10;46.80;19.10;102246.00;;;;4987797;28;20182;-59
2022/03/27 06:22:20;;;;;;;3.73;3.33;;;18.10;46.90;19.10;102248.00;;;;4988205;28;20305;-59
2022/03/27 06:24:46;;;;;;;3.70;3.40;;;18.10;46.80;19.10;102253.00;;;;5002807;28;20181;-58
2022/03/27 06:27:12;;;;;;;3.80;3.50;;;18.10;46.90;19.10;102255.00;;;;4987931;28;20180;-59
2022/03/27 06:29:37;;;;;;;3.80;3.40;;;18.10;46.80;19.00;102258.00;;;;4987501;28;20728;-58
2022/03/27 06:32:04;;;;;;;3.73;3.33;;;18.10;46.90;19.10;102221.00;;;;5004928;28;20173;-59
2022/03/27 06:34:30;;;;;;;3.90;3.60;;;18.10;47.00;19.00;102256.00;;;;5004251;28;20172;-58
2022/03/27 06:36:56;;;;;;;3.90;3.30;;;18.10;47.10;19.00;102265.00;;;;4987690;28;20172;-59
2022/03/27 06:39:21;;;;;;;3.50;3.20;;;18.10;47.30;19.00;102254.00;;;;4987274;28;20208;-58
2022/03/27 06:41:47;;;;;;;4.67;3.27;;;18.10;47.30;19.00;102264.00;;;;4987428;28;20184;-59
2022/03/27 06:44:13;;;;;;;3.33;3.10;;;18.10;47.50;19.00;102256.00;;;;4987782;28;20212;-58
2022/03/27 06:46:39;;;;;;;3.63;3.30;;;18.00;47.40;19.00;102274.00;;;;4987665;28;20175;-58
2022/03/27 06:49:05;;;;;;;3.63;3.33;;;18.00;47.20;18.90;102271.00;;;;4986120;28;20863;-58
2022/03/27 06:51:31;;;;;;;12.03;3.47;;;18.00;47.30;18.90;102257.00;;;;5002552;28;20184;-58
2022/03/27 06:53:57;;;;;;;5.60;3.40;;;18.00;47.80;18.90;102270.00;;;;4987139;28;20201;-58
2022/03/27 06:56:22;;;;;;;8.77;3.67;;;18.20;47.60;18.90;102266.00;;;;4987113;28;20246;-57
2022/03/27 06:58:48;;;;;;;7.73;3.50;;;18.30;47.60;19.00;102269.00;;;;4989482;28;20210;-58
2022/03/27 07:03:58;;;;;;;4.07;3.20;;;18.40;47.40;19.00;102274.00;;;;4986007;28;20164;-59
2022/03/27 07:06:24;;;;;;;4.40;3.30;;;18.40;47.30;19.00;102275.00;;;;4986628;28;20173;-59
2022/03/27 07:08:50;;;;;;;4.10;3.23;;;18.50;47.50;19.10;102270.00;;;;5001264;28;20328;-59
2022/03/27 07:11:15;;;;;;;5.23;3.20;;;18.50;47.50;19.10;102278.00;;;;5002062;28;20691;-59
2022/03/27 07:13:41;;;;;;;4.00;3.27;;;18.50;47.50;19.10;102262.00;;;;5002476;28;20173;-59
2022/03/27 07:16:07;;;;;;;3.37;2.90;;;18.50;47.50;19.10;102266.00;;;;4985876;28;20187;-59
2022/03/27 07:18:33;;;;;;;3.93;3.23;;;18.50;47.60;19.10;102268.00;;;;4986529;28;20728;-59
2022/03/27 07:20:59;;;;;;;4.77;3.07;;;18.50;47.70;19.10;102273.00;;;;5001884;28;20178;-59
2022/03/27 07:23:25;;;;;;;3.83;3.17;;;18.50;47.80;19.10;102244.00;;;;4987128;28;20180;-59
2022/03/27 07:25:53;;;;;;;3.63;3.00;;;18.50;47.90;19.10;102259.00;;;;4985640;28;20169;-58
2022/03/27 07:28:19;;;;;;;5.20;3.07;;;18.50;48.00;19.10;102222.00;;;;4986955;28;20206;-58
2022/03/27 07:30:48;;;;;;;4.33;3.10;;;18.40;48.00;19.10;102269.00;;;;5001875;28;20163;-58
2022/03/27 07:33:14;;;;;;;4.30;3.23;;;18.40;48.20;19.10;102271.00;;;;5001862;28;20563;-58
2022/03/27 07:35:40;;;;;;;3.70;3.00;;;18.50;48.30;19.10;102271.00;;;;4986256;28;20201;-58
2022/03/27 07:38:06;;;;;;;3.40;3.10;;;18.40;48.30;19.10;102265.00;;;;4984025;28;20296;-58
2022/03/27 07:40:32;;;;;;;3.93;2.90;;;18.40;48.30;19.10;102276.00;;;;4985742;28;20178;-57
2022/03/27 07:42:58;;;;;;;3.87;3.03;;;18.50;48.40;19.10;102269.00;;;;4986531;28;20175;-57
2022/03/27 07:45:27;;;;;;;4.57;3.20;;;18.40;48.30;19.10;102281.00;;;;4985195;28;20174;-59
2022/03/27 07:47:53;;;;;;;3.07;2.87;;;18.40;48.40;19.10;102264.00;;;;4986028;28;20192;-58
2022/03/27 07:50:20;;;;;;;3.30;3.00;;;18.40;48.60;19.10;102287.00;;;;4984238;28;20178;-58
2022/03/27 07:52:46;;;;;;;3.53;2.80;;;18.40;48.60;19.10;102285.00;;;;4986597;28;20172;-57
2022/03/27 07:55:14;;;;;;;7.23;3.00;;;18.40;48.70;19.10;102269.00;;;;4985181;28;20220;-58
2022/03/27 07:57:40;;;;;;;7.10;3.10;;;18.40;48.90;19.10;102286.00;;;;4986335;28;20248;-58
2022/03/27 08:00:10;;;;;;;5.33;2.80;;;18.40;48.90;19.10;102259.00;;;;4985050;28;20166;-57
2022/03/27 08:02:39;;;;;;;5.73;3.30;;;18.40;48.90;19.10;102278.00;;;;4985934;28;20269;-58
2022/03/27 08:05:05;;;;;;;4.87;3.00;;;18.40;48.90;19.10;102279.00;;;;4986148;28;20174;-58
2022/03/27 08:07:31;;;;;;;11.40;3.17;;;18.40;48.90;19.10;102274.00;;;;4987905;28;20197;-59
2022/03/27 08:09:57;;;;;;;10.63;3.20;;;18.30;48.90;19.10;102276.00;;;;4986652;28;20185;-58
2022/03/27 08:12:22;;;;;;;5.50;2.80;;;18.30;49.30;19.10;102265.00;;;;4987509;28;20186;-57
2022/03/27 08:14:48;;;;;;;4.70;2.83;;;18.30;49.10;19.10;102269.00;;;;4986512;28;20304;-57
2022/03/27 08:17:15;;;;;;;4.40;2.70;;;18.20;49.00;19.00;102244.00;;;;4985899;28;20654;-57
2022/03/27 08:19:42;;;;;;;9.33;3.30;;;18.20;48.90;19.00;102264.00;;;;4987284;28;20201;-60
2022/03/27 08:22:08;;;;;;;13.83;3.30;;;18.30;50.00;19.00;102237.00;;;;4985854;28;20239;-57
2022/03/27 08:24:34;;;;;;;9.37;3.20;;;18.30;50.80;19.00;102259.00;;;;4986964;28;20266;-59
2022/03/27 08:27:00;;;;;;;10.00;3.60;;;18.30;51.00;19.10;102256.00;;;;4988043;28;20170;-58
2022/03/27 08:29:29;;;;;;;8.30;3.30;;;18.30;51.50;19.10;102191.00;;;;4990878;28;20328;-59
2022/03/27 08:31:55;;;;;;;9.83;3.50;;;18.30;51.60;19.10;102247.00;;;;4989165;28;20215;-58
2022/03/27 08:34:23;;;;;;;9.57;3.53;;;18.40;51.50;19.10;102245.00;;;;4986976;28;20214;-57
2022/03/27 08:36:49;;;;;;;9.40;3.87;;;18.30;51.80;19.10;102241.00;;;;4987252;28;20585;-56
2022/03/27 08:39:14;;;;;;;10.27;3.37;;;18.30;52.50;19.10;102251.00;;;;4970637;28;20213;-55
2022/03/27 08:41:44;;;;;;;11.23;3.40;;;18.30;52.30;19.10;102249.00;;;;4971094;28;20293;-56
2022/03/27 08:44:15;;;;;;;8.60;3.43;;;18.30;52.50;19.10;102247.00;;;;4970728;28;20160;-58
2022/03/27 08:46:42;;;;;;;9.10;3.47;;;18.30;52.10;19.10;102250.00;;;;4970601;28;20187;-57
2022/03/27 08:49:32;;;;;;;9.97;3.40;;;18.30;51.90;19.10;102227.00;;;;4970588;28;20680;-58
2022/03/27 08:52:34;;;;;;;6.90;3.30;;;18.30;51.90;19.10;102251.00;;;;4982903;28;20161;-58
2022/03/27 08:55:12;;;;;;;14.23;3.50;;;18.30;51.70;19.10;102241.00;;;;4969161;28;20185;-57
2022/03/27 08:57:50;;;;;;;12.70;3.90;;;18.30;51.90;19.10;102242.00;;;;4984713;28;20214;-58
2022/03/27 09:00:19;;;;;;;6.90;3.37;;;18.30;51.70;19.10;102255.00;;;;4985414;28;20459;-57
2022/03/27 09:02:45;;;;;;;22.63;3.60;;;18.30;51.60;19.10;102261.00;;;;4984855;28;20175;-58
2022/03/27 09:05:11;;;;;;;7.77;3.40;;;18.30;51.50;19.10;102258.00;;;;4970422;28;20250;-57
2022/03/27 09:07:37;;;;;;;8.90;3.33;;;18.40;51.50;19.10;102255.00;;;;4984893;28;20208;-59
2022/03/27 09:10:08;;;;;;;8.70;3.30;;;18.30;51.30;19.10;102247.00;;;;4985567;28;20305;-59
2022/03/27 09:12:34;;;;;;;10.73;3.53;;;18.30;51.20;19.10;102223.00;;;;4968977;28;20236;-58
2022/03/27 09:15:00;;;;;;;8.37;3.23;;;18.30;51.20;19.10;102251.00;;;;4984959;28;20278;-58
2022/03/27 09:17:26;;;;;;;9.07;3.10;;;18.30;51.20;19.10;102255.00;;;;4984836;28;20312;-58
2022/03/27 09:19:52;;;;;;;7.80;3.30;;;18.30;51.20;19.10;102244.00;;;;4970365;28;20177;-57
2022/03/27 09:22:31;;;;;;;6.53;3.10;;;18.30;51.20;19.10;102251.00;;;;4985207;28;20173;-57
2022/03/27 09:25:00;;;;;;;8.27;3.30;;;18.30;51.10;19.10;102258.00;;;;4984763;28;20157;-58
2022/03/27 09:27:30;;;;;;;6.27;2.90;;;18.30;51.10;19.10;102252.00;;;;4969838;28;20650;-58
2022/03/27 09:30:06;;;;;;;7.23;3.20;;;18.30;51.10;19.10;102248.00;;;;4970035;28;20177;-58
2022/03/27 09:32:43;;;;;;;10.40;3.00;;;18.30;51.00;19.10;102247.00;;;;4969840;28;20198;-58
2022/03/27 09:35:14;;;;;;;5.93;3.27;;;18.30;51.00;19.10;102186.00;;;;4969435;28;20664;-58
2022/03/27 09:37:49;;;;;;;5.50;2.87;;;18.30;51.00;19.10;102246.00;;;;4983077;28;20236;-59
2022/03/27 09:40:16;;;;;;;5.83;2.90;;;18.30;51.00;19.10;102248.00;;;;4983626;28;20164;-58
2022/03/27 09:42:42;;;;;;;4.43;2.97;;;18.30;51.00;19.10;102248.00;;;;4983876;28;20451;-59
2022/03/27 09:45:13;;;;;;;5.20;3.00;;;18.30;51.00;19.10;102240.00;;;;4984381;28;20168;-58
2022/03/27 09:47:39;;;;;;;7.37;3.07;;;18.30;51.00;19.10;102238.00;;;;4983731;28;20196;-58
2022/03/27 09:50:05;;;;;;;6.17;3.10;;;18.30;51.00;19.10;102214.00;;;;4984330;28;20176;-58
2022/03/27 09:52:33;;;;;;;4.50;2.80;;;18.30;51.00;19.10;102231.00;;;;4984897;28;20181;-58
2022/03/27 09:55:00;;;;;;;5.67;2.97;;;18.30;51.00;19.10;102228.00;;;;4984667;28;20196;-58
2022/03/27 09:57:40;;;;;;;5.03;2.80;;;18.30;51.00;19.10;102228.00;;;;4984847;28;20201;-59
2022/03/27 10:00:14;;;;;;;3.83;2.90;;;18.40;51.10;19.10;102216.00;;;;4985533;28;20219;-58
2022/03/27 10:02:41;;;;;;;6.17;3.00;;;18.30;51.10;19.10;102209.00;;;;4969580;28;20856;-59
2022/03/27 10:05:08;;;;;;;5.33;2.83;;;18.40;51.10;19.10;102219.00;;;;4984172;28;20247;-58
2022/03/27 10:07:56;;;;;;;6.83;2.70;;;18.40;51.10;19.20;102216.00;;;;4968466;28;20613;-58
2022/03/27 10:10:26;;;;;;;4.53;2.67;;;18.40;51.10;19.20;102209.00;;;;4970900;28;20185;-58
2022/03/27 10:12:54;;;;;;;5.10;3.17;;;18.30;51.10;19.20;102217.00;;;;4968545;28;20189;-58
2022/03/27 10:15:26;;;;;;;5.73;2.93;;;18.40;51.20;19.20;102191.00;;;;4983474;28;20602;-58
2022/03/27 10:17:58;;;;;;;3.20;2.67;;;18.40;51.30;19.20;102204.00;;;;4983787;28;20303;-58
2022/03/27 10:20:28;;;;;;;3.10;2.70;;;18.40;51.40;19.20;102200.00;;;;4968972;28;20171;-58
2022/03/27 10:23:09;;;;;;;3.07;2.60;;;18.40;51.30;19.20;102210.00;;;;4983471;28;20152;-58
2022/03/27 10:25:39;;;;;;;4.13;3.03;;;18.40;51.30;19.20;102195.00;;;;4986096;28;20179;-58
2022/03/27 10:28:06;;;;;;;3.13;2.73;;;18.50;51.30;19.20;102199.00;;;;4982808;28;20219;-58
2022/03/27 10:30:32;;;;;;;4.17;2.60;;;18.40;51.30;19.20;102132.00;;;;4983277;28;20242;-59
2022/03/27 10:32:58;;;;;;;5.30;3.10;;;18.40;51.30;19.20;102196.00;;;;4983382;28;20183;-58
2022/03/27 10:35:35;;;;;;;4.30;2.80;;;18.40;51.30;19.20;102185.00;;;;4983398;28;20183;-58
2022/03/27 10:38:19;;;;;;;3.63;2.87;;;18.40;51.40;19.20;102196.00;;;;4982422;28;20218;-58
2022/03/27 10:40:58;;;;;;;3.20;2.50;;;18.40;51.40;19.20;102160.00;;;;4968787;28;20164;-58
2022/03/27 10:43:46;;;;;;;3.03;2.73;;;18.50;51.50;19.20;102180.00;;;;4981836;28;20389;-58
2022/03/27 10:46:23;;;;;;;3.77;2.63;;;18.50;51.50;19.20;102177.00;;;;4968031;28;20177;-58
2022/03/27 10:48:51;;;;;;;2.70;2.50;;;18.50;51.60;19.20;102179.00;;;;4983346;28;20195;-58
2022/03/27 10:51:44;;;;;;;3.70;2.70;;;18.50;52.70;19.20;102159.00;;;;4968540;28;20174;-58
2022/03/27 10:54:14;;;;;;;5.80;2.60;;;18.50;52.40;19.20;102175.00;;;;4977084;28;20190;-59